• Join FlightAware (Why Join?)
  • Login
  • US Flag 
03:18AM EDT


 

Airport Tracker/Info


-or-


 

Live Flight TrackerFlight Track Log ✈ SWA706 ✈ 11-May-2013 ✈ KPDX - KSLC

Flight Track Log - Related Links

Times and Time Zones

All times are in EDT time to prevent confusion due to time zone crossing. See the SWA706 flight status page for this flight to view local times or setup timezone preferences in your user account.

Time Position Orientation Groundspeed Altitude Reporting Facility
EDT Latitude Longitude Course Direction KTS MPH feet Rate Location/Type
06:34PM 45.6194 -122.6803 292° West 214 246 3,900  Level Seattle Center
06:35PM 45.6400 -122.7397 296° West 228 262 6,100 2,160 Climbing Seattle Center
06:36PM 45.5869 -122.7672 200° South 265 305 7,900 1,440 Climbing Seattle Center
06:37PM 45.5458 -122.6750 122° Southeast 287 330 9,100 1,440 Climbing Seattle Center
06:38PM 45.5039 -122.5708 120° Southeast 296 341 11,000 2,640 Climbing Seattle Center
06:39PM 45.4586 -122.4592 120° Southeast 311 358 14,500 3,480 Climbing Seattle Center
06:40PM 45.4056 -122.3336 121° Southeast 349 402 18,100 3,240 Climbing Seattle Center
06:41PM 45.3519 -122.2056 121° Southeast 373 429 21,100 2,820 Climbing Seattle Center
06:42PM 45.2939 -122.0708 121° Southeast 393 452 23,900 2,520 Climbing Seattle Center
06:43PM 45.2406 -121.9239 117° Southeast 420 483 26,200 2,280 Climbing Seattle Center
06:44PM 45.2011 -121.7661 109° East 435 501 28,500 2,040 Climbing Seattle Center
06:45PM 45.1594 -121.6028 110° East 442 509 30,400 1,740 Climbing Seattle Center
06:46PM 45.1158 -121.4344 110° East 452 520 32,100 1,980 Climbing Seattle Center
06:47PM 45.0606 -121.2261 111° Southeast 468 539 34,400 2,040 Climbing Seattle Center
06:48PM 45.0144 -121.0539 111° Southeast 470 541 36,300 1,740 Climbing Seattle Center
06:49PM 44.9689 -120.8828 111° Southeast 468 539 38,000 1,440 Climbing Seattle Center
06:50PM 44.9233 -120.7133 111° Southeast 463 533 39,300 1,140 Climbing Seattle Center
06:51PM 44.8778 -120.5431 111° Southeast 466 536 40,400 840 Climbing Seattle Center
06:52PM 44.8314 -120.3742 111° Southeast 467 537 41,000 240 Climbing Seattle Center
06:53PM 44.7850 -120.2056 111° Southeast 468 539 41,000  Level Seattle Center
06:54PM 44.7392 -120.0389 111° Southeast 467 537 41,000  Level Seattle Center
06:55PM 44.6925 -119.8714 111° Southeast 468 539 41,000  Level Seattle Center
06:56PM 44.6472 -119.7036 111° Southeast 466 536 41,000  Level Seattle Center
06:57PM 44.5878 -119.5017 112° Southeast 469 540 41,000  Level Seattle Center
06:58PM 44.5383 -119.3336 112° Southeast 469 540 41,000  Level Seattle Center
06:59PM 44.4892 -119.1658 112° Southeast 468 539 41,000  Level Seattle Center
07:00PM 44.4400 -118.9983 112° Southeast 468 539 41,000  Level Seattle Center
07:01PM 44.3872 -118.8303 114° Southeast 473 544 41,000  Level Seattle Center
07:02PM 44.3367 -118.6606 113° Southeast 474 545 41,000  Level Seattle Center
07:03PM 44.2856 -118.4897 113° Southeast 478 550 41,000  Level Seattle Center
07:04PM 44.2331 -118.3206 113° Southeast 477 549 41,000  Level Seattle Center
07:05PM 44.1744 -118.1303 113° Southeast 479 551 41,000  Level Seattle Center
07:06PM 44.1233 -117.9689 114° Southeast 478 550 41,000  Level Seattle Center
07:07PM 44.0744 -117.8075 113° Southeast 476 548 41,000  Level Seattle Center
07:07PM 44.0544 -117.7528 117° Southeast 475 547 41,000  Level Salt Lake Center
07:08PM 44.0044 -117.5933 114° Southeast 473 544 41,000  Level Salt Lake Center
07:09PM 43.9458 -117.4083 114° Southeast 471 542 41,000  Level Salt Lake Center
07:10PM 43.8956 -117.2500 114° Southeast 471 542 41,000  Level Salt Lake Center
07:11PM 43.8453 -117.0925 114° Southeast 470 541 41,000  Level Salt Lake Center
07:12PM 43.7875 -116.9122 114° Southeast 460 529 41,000  Level Salt Lake Center
07:13PM 43.7389 -116.7611 114° Southeast 450 518 41,000  Level Salt Lake Center
07:14PM 43.6814 -116.5847 114° Southeast 451 519 41,000  Level Salt Lake Center
07:15PM 43.6319 -116.4353 115° Southeast 451 519 41,000  Level Salt Lake Center
07:16PM 43.5828 -116.2850 114° Southeast 451 519 41,000  Level Salt Lake Center
07:17PM 43.5208 -116.1111 116° Southeast 453 521 41,100  Climbing Salt Lake Center
07:18PM 43.4617 -115.9661 119° Southeast 456 525 41,000 -60 Descending Salt Lake Center
07:19PM 43.3928 -115.7956 119° Southeast 458 527 41,000  Level Salt Lake Center
07:20PM 43.3336 -115.6508 119° Southeast 456 525 41,000  Level Salt Lake Center
07:22PM 43.2736 -115.5061 120° Southeast 456 525 41,000  Level Salt Lake Center
07:23PM 43.2050 -115.3364 119° Southeast 456 525 41,000  Level Salt Lake Center
07:24PM 43.1447 -115.1942 120° Southeast 454 522 41,000  Level Salt Lake Center
07:25PM 43.0756 -115.0261 119° Southeast 453 521 41,000  Level Salt Lake Center
07:26PM 43.0156 -114.8833 120° Southeast 453 521 41,000  Level Salt Lake Center
07:27PM 42.9561 -114.7411 120° Southeast 452 520 41,000  Level Salt Lake Center
07:28PM 42.8861 -114.5739 120° Southeast 455 524 41,000  Level Salt Lake Center
07:29PM 42.8242 -114.4297 120° Southeast 459 528 41,000  Level Salt Lake Center
07:30PM 42.7600 -114.2792 120° Southeast 461 531 41,000  Level Salt Lake Center
07:31PM 42.6944 -114.1294 121° Southeast 462 532 41,000 -660 Level Salt Lake Center
07:32PM 42.6314 -113.9786 120° Southeast 458 527 39,700 -1,860 Descending Salt Lake Center
07:33PM 42.5622 -113.8378 124° Southeast 449 517 37,300 -2,940 Descending Salt Lake Center
07:34PM 42.4511 -113.6911 136° Southeast 464 534 33,800 -3,180 Descending Salt Lake Center
07:35PM 42.3572 -113.5672 136° Southeast 471 542 30,900 -2,400 Descending Salt Lake Center
07:36PM 42.2658 -113.4450 135° Southeast 466 536 29,000 -960 Descending Salt Lake Center
07:37PM 42.1756 -113.3250 135° Southeast 458 527 29,000  Level Salt Lake Center
07:38PM 42.0828 -113.2050 136° Southeast 463 533 29,000  Level Salt Lake Center
07:39PM 41.9917 -113.0842 135° Southeast 462 532 29,000 -1,080 Level Salt Lake Center
07:40PM 41.9011 -112.9658 136° Southeast 458 527 26,900 -2,160 Descending Salt Lake Center
07:41PM 41.8136 -112.8511 136° Southeast 443 510 24,600 -2,280 Descending Salt Lake Center
07:42PM 41.7292 -112.7431 136° Southeast 427 491 22,300 -2,220 Descending Salt Lake Center
07:43PM 41.6458 -112.6389 137° Southeast 413 475 20,100 -2,280 Descending Salt Lake Center
07:44PM 41.5542 -112.5200 136° Southeast 381 438 17,700 -1,560 Descending Salt Lake Center
07:45PM 41.4728 -112.4361 142° Southeast 373 429 17,000 -600 Descending Salt Lake Center
07:46PM 41.3819 -112.3731 152° Southeast 369 425 16,600 -1,320 Descending Salt Lake Center
07:47PM 41.2944 -112.3100 152° Southeast 360 414 14,400 -1,800 Descending Salt Lake Center
07:48PM 41.2092 -112.2483 151° Southeast 351 404 13,000 -720 Descending Salt Lake Center
07:49PM 41.1286 -112.1869 150° Southeast 338 389 13,000  Level Salt Lake Center
07:50PM 41.0789 -112.1508 151° Southeast 343 395 13,000  Level Salt Lake Center
07:50PM 41.0428 -112.1375 164° South 345 397 13,000 -660 Level Salt Lake Center
07:51PM 40.9508 -112.1197 172° South 338 389 12,000 -1,380 Descending Salt Lake Center
07:52PM 40.8942 -112.1083 171° South 335 386 11,000 -1,380 Descending Salt Lake Center
07:52PM 40.8450 -112.1008 173° South 320 368 10,600 -1,140 Descending Salt Lake Center
07:52PM 40.8164 -112.0950 171° South 306 352 10,000 -1,620 Descending Salt Lake Center
07:53PM 40.7647 -112.0797 167° South 297 342 9,000 -1,200 Descending Salt Lake Center
07:53PM 40.7372 -112.0764 175° South 294 338 8,800 -240 Descending Salt Lake Center
07:54PM 40.6908 -112.0600 165° South 270 311 8,800 -120 Level Salt Lake Center
07:55PM 40.6706 -112.0425 147° Southeast 231 266 8,700 -420 Descending Salt Lake Center
07:55PM 40.6525 -112.0089 125° Southeast 197 227 8,400 -1,080 Descending Salt Lake Center
07:56PM 40.6642 -111.9881 54° Northeast 164 189 7,500 -1,680 Descending Salt Lake Center
07:56PM 40.6867 -111.9844 North 157 181 6,700 -1,680 Descending Salt Lake Center
07:57PM 40.7031 -111.9892 348° North 155 178 6,000 -1,500 Descending Salt Lake Center
07:57PM 40.7289 -111.9897 359° North 152 175 5,200 -1,200 Descending Salt Lake Center
07:58PM 40.7450 -111.9947 347° North 147 169 4,800 -840 Descending Salt Lake Center
07:58PM 40.7675 -111.9942 North 140 161 4,400 -600 Descending Salt Lake Center
08:00PM 40.7833 -111.9667 North  Level FlightAware Approximate
08:07PM 40.7884 -111.9778 North  Level Estimated